createdAt,value
2022-12-04T00:00:01.600Z,78.737
2022-12-04T00:07:02.140Z,78.737
2022-12-04T00:14:06.852Z,78.855
2022-12-04T00:21:01.320Z,78.855
2022-12-04T00:28:01.702Z,78.919
2022-12-04T00:35:02.120Z,78.948
2022-12-04T00:42:02.172Z,78.948
2022-12-04T00:49:01.628Z,78.869
2022-12-04T00:56:01.852Z,78.869
2022-12-04T01:00:02.428Z,78.869
2022-12-04T01:07:05.019Z,79.045
2022-12-04T01:14:02.179Z,79.117
2022-12-04T01:21:01.977Z,79.117
2022-12-04T01:28:01.438Z,79.09
2022-12-04T01:35:01.842Z,79.09
2022-12-04T01:42:02.236Z,79.193
2022-12-04T01:49:01.433Z,79.193
2022-12-04T01:56:01.655Z,79.308
2022-12-04T02:00:02.301Z,79.308
2022-12-04T02:07:02.224Z,79.28
2022-12-04T02:14:01.666Z,79.28
2022-12-04T02:21:01.657Z,79.225
2022-12-04T02:28:01.300Z,79.225
2022-12-04T02:35:02.281Z,79.148
2022-12-04T02:42:01.767Z,79.148
2022-12-04T02:49:01.541Z,79.037
2022-12-04T02:56:01.639Z,79.116
2022-12-04T03:00:02.205Z,79.116
2022-12-04T03:07:02.103Z,79.116
2022-12-04T03:14:01.575Z,79.241
2022-12-04T03:21:01.769Z,79.241
2022-12-04T03:28:02.234Z,79.314
2022-12-04T03:35:02.171Z,79.243
2022-12-04T03:42:01.748Z,79.243
2022-12-04T03:49:01.331Z,79.374
2022-12-04T03:56:01.543Z,79.374
2022-12-04T04:00:02.950Z,79.278
2022-12-04T04:07:01.797Z,79.278
2022-12-04T04:14:02.086Z,79.327
2022-12-04T04:21:02.281Z,79.327
2022-12-04T04:28:02.031Z,79.287
2022-12-04T04:35:02.404Z,79.287
2022-12-04T04:42:01.816Z,79.517
2022-12-04T04:49:02.076Z,79.517
2022-12-04T04:56:01.902Z,79.633
2022-12-04T05:00:02.471Z,79.633
2022-12-04T05:07:01.431Z,79.726
2022-12-04T05:14:01.758Z,79.726
2022-12-04T05:21:01.317Z,79.485
2022-12-04T05:28:01.304Z,79.485
2022-12-04T05:35:07.648Z,79.449
2022-12-04T05:42:02.042Z,79.449
2022-12-04T05:49:02.156Z,79.37
2022-12-04T05:56:01.784Z,79.325
2022-12-04T06:00:02.421Z,79.325
2022-12-04T06:07:01.556Z,79.325
2022-12-04T06:14:02.033Z,79.373
2022-12-04T06:21:01.779Z,79.373
2022-12-04T06:28:02.073Z,79.536
2022-12-04T06:35:02.527Z,79.556
2022-12-04T06:42:01.413Z,79.556
2022-12-04T06:49:01.783Z,79.646
2022-12-04T06:56:02.009Z,79.646
2022-12-04T07:00:01.689Z,79.677
2022-12-04T07:07:01.355Z,79.677
2022-12-04T07:14:01.682Z,79.802
2022-12-04T07:21:01.644Z,79.802
2022-12-04T07:28:02.064Z,79.75
2022-12-04T07:35:01.930Z,79.75
2022-12-04T07:42:01.300Z,79.394
2022-12-04T07:49:01.520Z,79.394
2022-12-04T07:56:02.240Z,79.236
2022-12-04T08:00:01.839Z,79.236
2022-12-04T08:07:02.282Z,78.955
2022-12-04T08:14:01.854Z,78.955
2022-12-04T08:21:01.649Z,78.784
2022-12-04T08:28:01.310Z,78.784
2022-12-04T08:35:02.297Z,78.224
2022-12-04T08:42:02.032Z,78.224
2022-12-04T08:49:01.928Z,77.892
2022-12-04T08:56:01.598Z,77.411
2022-12-04T09:00:02.184Z,77.411
2022-12-04T09:07:01.514Z,77.411
2022-12-04T09:14:02.018Z,76.962
2022-12-04T09:21:01.676Z,77.284
2022-12-04T09:28:02.170Z,77.284
2022-12-04T09:35:01.998Z,77.079
2022-12-04T09:42:01.694Z,77.079
2022-12-04T09:49:01.575Z,76.791
2022-12-04T09:56:01.549Z,76.791
2022-12-04T10:00:02.119Z,76.189
2022-12-04T10:07:02.304Z,76.189
2022-12-04T10:14:02.182Z,75.065
2022-12-04T10:21:01.754Z,75.065
2022-12-04T10:28:02.159Z,75.261
2022-12-04T10:35:01.772Z,75.261
2022-12-04T10:42:01.694Z,75.41
2022-12-04T10:49:02.002Z,75.41
2022-12-04T10:56:01.435Z,75.781
2022-12-04T11:00:01.942Z,75.781
2022-12-04T11:07:02.034Z,75.708
2022-12-04T11:14:01.821Z,75.708
2022-12-04T11:21:01.904Z,75.701
2022-12-04T11:28:01.425Z,75.701
2022-12-04T11:35:01.748Z,75.44
2022-12-04T11:42:02.095Z,75.44
2022-12-04T11:49:01.346Z,74.904
2022-12-04T11:56:01.544Z,75.387
2022-12-04T12:00:02.107Z,75.387
2022-12-04T12:07:02.300Z,75.387
2022-12-04T12:14:01.560Z,75.209
2022-12-04T12:21:01.403Z,75.233
2022-12-04T12:28:01.900Z,75.233
2022-12-04T12:35:02.180Z,75.388
2022-12-04T12:42:01.950Z,75.388
2022-12-04T12:49:01.875Z,75.471
2022-12-04T12:56:02.109Z,75.471
2022-12-04T13:00:01.763Z,75.73
2022-12-04T13:07:01.701Z,75.73
2022-12-04T13:14:02.153Z,75.822
2022-12-04T13:21:01.735Z,75.822
2022-12-04T13:28:01.752Z,75.828
2022-12-04T13:35:02.341Z,75.828
2022-12-04T13:42:01.950Z,76.024
2022-12-04T13:49:02.213Z,76.024
2022-12-04T13:56:07.553Z,76.178
2022-12-04T14:00:02.400Z,76.178
2022-12-04T14:07:01.474Z,76.279
2022-12-04T14:14:07.822Z,76.279
2022-12-04T14:21:01.701Z,76.296
2022-12-04T14:28:02.046Z,76.296
2022-12-04T14:35:02.107Z,76.521
2022-12-04T14:42:03.389Z,76.521
2022-12-04T14:49:01.725Z,76.791
2022-12-04T14:56:07.076Z,77.126
2022-12-04T15:00:02.132Z,77.126
2022-12-04T15:07:01.913Z,77.126
2022-12-04T15:14:02.260Z,77.524
2022-12-04T15:21:01.833Z,78.161
2022-12-04T15:28:01.603Z,78.161
2022-12-04T15:35:02.232Z,78.777
2022-12-04T15:42:01.544Z,78.777
2022-12-04T15:49:01.832Z,79.147
2022-12-04T15:56:01.883Z,79.147
2022-12-04T16:00:02.508Z,79.807
2022-12-04T16:07:02.304Z,79.807
2022-12-04T16:14:01.301Z,79.86
2022-12-04T16:21:01.730Z,79.86
2022-12-04T16:28:02.051Z,79.875
2022-12-04T16:35:02.483Z,79.875
2022-12-04T16:42:01.806Z,80.062
2022-12-04T16:49:07.252Z,80.062
2022-12-04T16:56:01.949Z,80.131
2022-12-04T17:00:02.597Z,80.131
2022-12-04T17:07:01.912Z,80.24
2022-12-04T17:14:01.549Z,80.24
2022-12-04T17:21:01.706Z,80.442
2022-12-04T17:28:01.650Z,80.442
2022-12-04T17:35:02.585Z,80.655
2022-12-04T17:42:01.431Z,80.674
2022-12-04T17:49:06.589Z,80.674
2022-12-04T17:56:02.094Z,80.746
2022-12-04T18:00:01.625Z,80.746
2022-12-04T18:07:02.222Z,80.746
2022-12-04T18:14:04.849Z,80.781
2022-12-04T18:21:01.992Z,80.965
2022-12-04T18:28:02.266Z,80.965
2022-12-04T18:35:01.852Z,80.933
2022-12-04T18:42:01.974Z,80.933
2022-12-04T18:49:01.354Z,81.046
2022-12-04T18:56:01.787Z,81.046
2022-12-04T19:00:02.330Z,81.072
2022-12-04T19:07:02.003Z,81.072
2022-12-04T19:14:04.308Z,81.1
2022-12-04T19:21:01.972Z,81.1
2022-12-04T19:28:02.933Z,81.144
2022-12-04T19:35:01.655Z,81.144
2022-12-04T19:42:01.485Z,81.107
2022-12-04T19:49:01.371Z,81.107
2022-12-04T19:56:01.471Z,81.242
2022-12-04T20:00:02.394Z,81.242
2022-12-04T20:07:01.578Z,81.398
2022-12-04T20:14:02.138Z,81.398
2022-12-04T20:21:01.784Z,81.483
2022-12-04T20:28:02.151Z,81.483
2022-12-04T20:35:02.231Z,81.47
2022-12-04T20:42:01.738Z,81.552
2022-12-04T20:49:01.311Z,81.552
2022-12-04T20:56:01.761Z,81.74
2022-12-04T21:00:02.462Z,81.74
2022-12-04T21:07:02.106Z,81.74
2022-12-04T21:14:01.702Z,81.904
2022-12-04T21:21:01.920Z,82.113
2022-12-04T21:28:02.225Z,82.113
2022-12-04T21:35:01.755Z,82.333
2022-12-04T21:42:01.538Z,82.333
2022-12-04T21:49:02.264Z,82.517
2022-12-04T21:56:01.433Z,82.517
2022-12-04T22:00:01.982Z,82.732
2022-12-04T22:07:01.671Z,82.732
2022-12-04T22:14:01.904Z,83.495
2022-12-04T22:21:02.095Z,83.495
2022-12-04T22:28:01.651Z,83.906
2022-12-04T22:35:02.272Z,83.906
2022-12-04T22:42:01.913Z,84.175
2022-12-04T22:49:01.656Z,84.175
2022-12-04T22:56:01.937Z,84.236
2022-12-04T23:00:02.752Z,84.236
2022-12-04T23:07:02.132Z,84.266
2022-12-04T23:14:02.292Z,84.266
2022-12-04T23:21:01.368Z,84.28
2022-12-04T23:28:01.472Z,84.28
2022-12-04T23:35:01.008Z,84.347
2022-12-04T23:42:01.715Z,84.544
2022-12-04T23:49:01.956Z,84.544
2022-12-04T23:56:01.802Z,84.468
